Aérodrome :
LOGIN :

S'inscrire | Disclaimer

   EN    FR    IT 

 










Légende :    VFR   VFR Marginal   IFR   IFR Intensif   IFR Très Intensif
Visi : 
Plafond : 
>= 8 km
>= 3000ft
5 à 8 km
1000 à 3000 ft
1500m à 5 km
500 à 1000 ft
800 à 1500m
200 à 500 ft
< 800m
< 200 ft
Symboles :   Orages  Brouillard  Fortes neiges  Fortes précipitations  Vent > 20 kt
SIGMETs :   Divers  Orages  Givrage  Turbulence  Onde Orograph.  Cendres Volcan.







- Altitude de l'aérodrome : 1247 ft
- Code IATA : PRG


LKPR - Praha Ruzyne

DERNIER METAR :
  • 221430Z 16004KT 120V210 8000 FEW008 BKN023 M02/M07 Q1009 NOSIG

METARs EXPIRÉS :
  • 221400Z 15004KT 8000 FEW008 BKN023 M03/M07 Q1010 NOSIG
  • 221339Z 08004KT 050V110 8000 FEW008 BKN023 M03/M07 Q1010 RMK REG QNH 1004
  • 221330Z 05004KT 360V090 4000 BR FEW008 BKN023 M03/M06 Q1010 TEMPO 5000 BR
  • 221300Z 05004KT 3200 BR FEW008 BKN023 M03/M06 Q1010 NOSIG
  • 221230Z 34003KT 270V030 3000 BR BKN023 M03/M05 Q1011 NOSIG
  • 221200Z 34003KT 280V360 3000 BR FEW017 BKN023 M03/M05 Q1011 NOSIG

TAF TAF LKPR
Valide du 22 à 12h jusqu'au 23 à 18h UTC


221100Z 2212/2318 12006KT 5000 BR BKN020
TEMPO 2212/2310 3000 BR
PROB30
TEMPO 2212/2308 1800 BR
BECMG 2222/2300 VRB02KT
BECMG 2309/2311 08010KT
Pas de NOTAMs connus pour ce terrain.



MET'MAP, la Météo Aéronautique d'un coup d'oeil ! - Copyright ORBIFLY Décembre 2007 - Disclaimer

ORBIFLY MET'MAP TEAM :

Programmation & Développement : Alexandra Zaïnal
Conception & Développement : Baudouin d'Aumeries
Co-Programmation & Développement : Marc-Olivier Méhu
Soutien technique & logistique : Manuel Goepfert

Contact : metmap@orbifly.com




SOURCES & CREDITS :

   NOAA